Impacts TAF Board INFO
FOR SITUATIONAL AWARENESS. NOT TO BE USED FOR FLIGHT PLANNING PURPOSES.
IDs:

KMEM - Memphis Intl, TN, US

Issued at 1128 UTC 20 Jan 2018
Updated at 1304 UTC 20 Jan 2018
Potential Impact None Slight Moderate High
Time<<21/02Z 21/03Z 21/04Z 21/05Z 21/06Z 21/07Z 21/08Z 21/09Z 21/10Z 21/11Z 21/12Z 21/13Z 21/14Z>>
Type PRVL PRVL PRVL PRVL PRVL PRVL PRVL PRVL PRVL PRVL PRVL PRVL PRVL
VIS >6 >6 >6 >6 >6 >6 >6 >6 >6 >6 >6 >6 >6
CIG 30 30 30 30 30 20 20 20 20 20 20 20 20
Cover BKN BKN BKN BKN BKN OVC OVC OVC OVC OVC OVC OVC OVC
FltCat MVFR MVFR MVFR MVFR MVFR MVFR MVFR MVFR MVFR MVFR MVFR MVFR MVFR
WX VCSH VCSH VCSH VCSH VCSH -- -- -- -- -- -- -- --
WDir 180 180 180 180 180 180 180 180 180 180 180 180 180
WSpd 8 8 8 8 8 11 11 11 11 11 11 11 11
WGst -- -- -- -- -- -- -- -- -- -- -- -- --

Raw TAF
KMEM 201128Z 2012/2118 20005KT P6SM SCT040 OVC060
  FM201300 19007KT P6SM BKN020
  FM201800 18008KT P6SM VCSH BKN030
  FM210700 18011KT P6SM OVC020


METAR Board
Radar Display
Forecast Discussion

FOR SITUATIONAL AWARENESS. NOT TO BE USED FOR FLIGHT PLANNING PURPOSES.